sensor_id;sensor_type;location;lat;lon;timestamp;P1;durP1;ratioP1;P2;durP2;ratioP2
41897;SDS011;27576;53.366;-1.498;2023-10-31T00:01:49;9.00;;;8.10;;
41897;SDS011;27576;53.366;-1.498;2023-10-31T00:04:15;10.15;;;8.55;;
41897;SDS011;27576;53.366;-1.498;2023-10-31T00:06:40;12.30;;;8.68;;
41897;SDS011;27576;53.366;-1.498;2023-10-31T00:09:06;12.60;;;9.57;;
41897;SDS011;27576;53.366;-1.498;2023-10-31T00:11:32;9.50;;;7.93;;
41897;SDS011;27576;53.366;-1.498;2023-10-31T00:13:57;10.70;;;8.18;;
41897;SDS011;27576;53.366;-1.498;2023-10-31T00:16:22;9.77;;;8.45;;
41897;SDS011;27576;53.366;-1.498;2023-10-31T00:18:48;8.13;;;7.30;;
41897;SDS011;27576;53.366;-1.498;2023-10-31T00:21:14;8.05;;;7.25;;
41897;SDS011;27576;53.366;-1.498;2023-10-31T00:23:42;8.50;;;7.70;;
41897;SDS011;27576;53.366;-1.498;2023-10-31T00:26:16;8.90;;;8.10;;
41897;SDS011;27576;53.366;-1.498;2023-10-31T00:28:42;8.60;;;7.78;;
41897;SDS011;27576;53.366;-1.498;2023-10-31T00:31:07;10.82;;;8.32;;
41897;SDS011;27576;53.366;-1.498;2023-10-31T00:33:34;9.07;;;7.97;;
41897;SDS011;27576;53.366;-1.498;2023-10-31T00:36:00;13.23;;;9.55;;
41897;SDS011;27576;53.366;-1.498;2023-10-31T00:38:26;10.50;;;8.68;;
41897;SDS011;27576;53.366;-1.498;2023-10-31T00:40:51;9.32;;;7.97;;
41897;SDS011;27576;53.366;-1.498;2023-10-31T00:43:16;9.32;;;8.32;;
41897;SDS011;27576;53.366;-1.498;2023-10-31T00:45:42;9.02;;;8.02;;
41897;SDS011;27576;53.366;-1.498;2023-10-31T00:48:07;8.07;;;6.88;;
41897;SDS011;27576;53.366;-1.498;2023-10-31T00:50:32;7.50;;;6.70;;
41897;SDS011;27576;53.366;-1.498;2023-10-31T00:52:58;9.98;;;7.78;;
41897;SDS011;27576;53.366;-1.498;2023-10-31T00:55:23;10.05;;;8.32;;
41897;SDS011;27576;53.366;-1.498;2023-10-31T00:57:48;7.63;;;6.82;;
41897;SDS011;27576;53.366;-1.498;2023-10-31T01:00:14;10.25;;;8.35;;
41897;SDS011;27576;53.366;-1.498;2023-10-31T01:02:40;9.10;;;8.07;;
41897;SDS011;27576;53.366;-1.498;2023-10-31T01:05:06;8.75;;;7.72;;
41897;SDS011;27576;53.366;-1.498;2023-10-31T01:07:31;9.98;;;8.18;;
41897;SDS011;27576;53.366;-1.498;2023-10-31T01:09:57;9.38;;;8.10;;
41897;SDS011;27576;53.366;-1.498;2023-10-31T01:12:22;8.50;;;7.63;;
41897;SDS011;27576;53.366;-1.498;2023-10-31T01:14:47;8.27;;;7.47;;
41897;SDS011;27576;53.366;-1.498;2023-10-31T01:17:13;7.40;;;6.32;;
41897;SDS011;27576;53.366;-1.498;2023-10-31T01:19:38;8.48;;;7.68;;
41897;SDS011;27576;53.366;-1.498;2023-10-31T01:22:03;6.63;;;5.97;;
41897;SDS011;27576;53.366;-1.498;2023-10-31T01:24:29;6.05;;;5.45;;
41897;SDS011;27576;53.366;-1.498;2023-10-31T01:26:54;7.20;;;6.43;;
41897;SDS011;27576;53.366;-1.498;2023-10-31T01:29:19;6.10;;;5.50;;
41897;SDS011;27576;53.366;-1.498;2023-10-31T01:31:45;8.63;;;6.53;;
41897;SDS011;27576;53.366;-1.498;2023-10-31T01:34:11;6.80;;;6.10;;
41897;SDS011;27576;53.366;-1.498;2023-10-31T01:36:36;6.78;;;6.18;;
41897;SDS011;27576;53.366;-1.498;2023-10-31T01:39:01;7.30;;;6.28;;
41897;SDS011;27576;53.366;-1.498;2023-10-31T01:41:27;7.45;;;6.68;;
41897;SDS011;27576;53.366;-1.498;2023-10-31T01:43:52;7.50;;;6.10;;
41897;SDS011;27576;53.366;-1.498;2023-10-31T01:46:18;7.70;;;6.85;;
41897;SDS011;27576;53.366;-1.498;2023-10-31T01:48:43;10.20;;;6.28;;
41897;SDS011;27576;53.366;-1.498;2023-10-31T01:51:09;5.72;;;5.22;;
41897;SDS011;27576;53.366;-1.498;2023-10-31T01:53:35;5.80;;;5.25;;
41897;SDS011;27576;53.366;-1.498;2023-10-31T01:56:02;5.35;;;4.68;;
41897;SDS011;27576;53.366;-1.498;2023-10-31T01:58:29;5.53;;;5.03;;
41897;SDS011;27576;53.366;-1.498;2023-10-31T02:00:57;4.80;;;4.40;;
41897;SDS011;27576;53.366;-1.498;2023-10-31T02:03:22;4.50;;;4.10;;
41897;SDS011;27576;53.366;-1.498;2023-10-31T02:05:48;5.18;;;4.68;;
41897;SDS011;27576;53.366;-1.498;2023-10-31T02:08:15;4.40;;;4.00;;
41897;SDS011;27576;53.366;-1.498;2023-10-31T02:10:41;5.00;;;4.50;;
41897;SDS011;27576;53.366;-1.498;2023-10-31T02:13:10;4.47;;;4.07;;
41897;SDS011;27576;53.366;-1.498;2023-10-31T02:15:39;5.78;;;4.60;;
41897;SDS011;27576;53.366;-1.498;2023-10-31T02:18:04;4.95;;;4.40;;
41897;SDS011;27576;53.366;-1.498;2023-10-31T02:20:30;5.20;;;4.28;;
41897;SDS011;27576;53.366;-1.498;2023-10-31T02:22:55;5.30;;;4.75;;
41897;SDS011;27576;53.366;-1.498;2023-10-31T02:25:21;4.43;;;4.03;;
41897;SDS011;27576;53.366;-1.498;2023-10-31T02:27:46;5.13;;;4.63;;
41897;SDS011;27576;53.366;-1.498;2023-10-31T02:30:12;4.82;;;4.43;;
41897;SDS011;27576;53.366;-1.498;2023-10-31T02:32:37;9.13;;;4.40;;
41897;SDS011;27576;53.366;-1.498;2023-10-31T02:35:03;5.10;;;4.60;;
41897;SDS011;27576;53.366;-1.498;2023-10-31T02:37:29;4.40;;;4.00;;
41897;SDS011;27576;53.366;-1.498;2023-10-31T02:39:54;4.95;;;4.40;;
41897;SDS011;27576;53.366;-1.498;2023-10-31T02:42:19;4.85;;;4.38;;
41897;SDS011;27576;53.366;-1.498;2023-10-31T02:44:45;4.53;;;4.13;;
41897;SDS011;27576;53.366;-1.498;2023-10-31T02:47:10;3.97;;;3.67;;
41897;SDS011;27576;53.366;-1.498;2023-10-31T02:49:35;4.47;;;3.97;;
41897;SDS011;27576;53.366;-1.498;2023-10-31T02:52:01;5.53;;;3.92;;
41897;SDS011;27576;53.366;-1.498;2023-10-31T02:54:26;5.93;;;4.20;;
41897;SDS011;27576;53.366;-1.498;2023-10-31T02:56:51;5.53;;;4.32;;
41897;SDS011;27576;53.366;-1.498;2023-10-31T02:59:17;4.20;;;3.90;;
41897;SDS011;27576;53.366;-1.498;2023-10-31T03:01:42;4.90;;;4.40;;
41897;SDS011;27576;53.366;-1.498;2023-10-31T03:04:07;6.47;;;4.95;;
41897;SDS011;27576;53.366;-1.498;2023-10-31T03:06:33;4.88;;;4.47;;
41897;SDS011;27576;53.366;-1.498;2023-10-31T03:08:58;4.90;;;4.40;;
41897;SDS011;27576;53.366;-1.498;2023-10-31T03:11:24;3.83;;;3.40;;
41897;SDS011;27576;53.366;-1.498;2023-10-31T03:13:50;4.47;;;3.40;;
41897;SDS011;27576;53.366;-1.498;2023-10-31T03:16:15;3.38;;;3.05;;
41897;SDS011;27576;53.366;-1.498;2023-10-31T03:18:41;3.83;;;3.33;;
41897;SDS011;27576;53.366;-1.498;2023-10-31T03:21:06;4.63;;;4.22;;
41897;SDS011;27576;53.366;-1.498;2023-10-31T03:23:32;4.38;;;3.85;;
41897;SDS011;27576;53.366;-1.498;2023-10-31T03:25:57;4.70;;;4.07;;
41897;SDS011;27576;53.366;-1.498;2023-10-31T03:28:22;4.40;;;4.00;;
41897;SDS011;27576;53.366;-1.498;2023-10-31T03:30:49;4.40;;;4.00;;
41897;SDS011;27576;53.366;-1.498;2023-10-31T03:33:15;4.63;;;4.15;;
41897;SDS011;27576;53.366;-1.498;2023-10-31T03:35:44;5.45;;;4.00;;
41897;SDS011;27576;53.366;-1.498;2023-10-31T03:38:10;5.70;;;4.80;;
41897;SDS011;27576;53.366;-1.498;2023-10-31T03:40:35;5.65;;;4.80;;
41897;SDS011;27576;53.366;-1.498;2023-10-31T03:43:01;5.35;;;4.85;;
41897;SDS011;27576;53.366;-1.498;2023-10-31T03:45:26;6.75;;;5.18;;
41897;SDS011;27576;53.366;-1.498;2023-10-31T03:47:51;4.72;;;4.30;;
41897;SDS011;27576;53.366;-1.498;2023-10-31T03:50:17;7.15;;;5.03;;
41897;SDS011;27576;53.366;-1.498;2023-10-31T03:52:42;6.80;;;5.70;;
41897;SDS011;27576;53.366;-1.498;2023-10-31T03:55:07;7.25;;;5.15;;
41897;SDS011;27576;53.366;-1.498;2023-10-31T03:57:33;6.30;;;5.68;;
41897;SDS011;27576;53.366;-1.498;2023-10-31T03:59:58;7.47;;;5.45;;
41897;SDS011;27576;53.366;-1.498;2023-10-31T04:02:24;7.10;;;6.18;;
41897;SDS011;27576;53.366;-1.498;2023-10-31T04:04:49;6.32;;;5.35;;
41897;SDS011;27576;53.366;-1.498;2023-10-31T04:07:14;6.10;;;5.53;;
41897;SDS011;27576;53.366;-1.498;2023-10-31T04:09:40;7.45;;;6.22;;
41897;SDS011;27576;53.366;-1.498;2023-10-31T04:12:05;7.22;;;6.47;;
41897;SDS011;27576;53.366;-1.498;2023-10-31T04:14:31;7.38;;;6.38;;
41897;SDS011;27576;53.366;-1.498;2023-10-31T04:16:56;7.00;;;6.03;;
41897;SDS011;27576;53.366;-1.498;2023-10-31T04:19:22;8.80;;;7.38;;
41897;SDS011;27576;53.366;-1.498;2023-10-31T04:21:47;10.27;;;7.40;;
41897;SDS011;27576;53.366;-1.498;2023-10-31T04:24:13;8.43;;;6.95;;
41897;SDS011;27576;53.366;-1.498;2023-10-31T04:26:40;9.60;;;7.60;;
41897;SDS011;27576;53.366;-1.498;2023-10-31T04:29:06;10.00;;;7.05;;
41897;SDS011;27576;53.366;-1.498;2023-10-31T04:31:31;8.55;;;6.97;;
41897;SDS011;27576;53.366;-1.498;2023-10-31T04:33:56;10.82;;;7.65;;
41897;SDS011;27576;53.366;-1.498;2023-10-31T04:36:22;8.38;;;7.10;;
41897;SDS011;27576;53.366;-1.498;2023-10-31T04:38:47;9.13;;;7.72;;
41897;SDS011;27576;53.366;-1.498;2023-10-31T04:41:12;10.48;;;7.95;;
41897;SDS011;27576;53.366;-1.498;2023-10-31T04:43:38;14.60;;;8.32;;
41897;SDS011;27576;53.366;-1.498;2023-10-31T04:46:06;9.25;;;7.25;;
41897;SDS011;27576;53.366;-1.498;2023-10-31T04:48:32;8.00;;;6.97;;
41897;SDS011;27576;53.366;-1.498;2023-10-31T04:50:57;11.32;;;7.07;;
41897;SDS011;27576;53.366;-1.498;2023-10-31T04:53:23;10.50;;;7.75;;
41897;SDS011;27576;53.366;-1.498;2023-10-31T04:55:49;10.93;;;8.15;;
41897;SDS011;27576;53.366;-1.498;2023-10-31T04:58:14;9.57;;;7.97;;
41897;SDS011;27576;53.366;-1.498;2023-10-31T05:00:39;14.93;;;9.25;;
41897;SDS011;27576;53.366;-1.498;2023-10-31T05:03:05;10.55;;;8.65;;
41897;SDS011;27576;53.366;-1.498;2023-10-31T05:05:32;11.95;;;8.18;;
41897;SDS011;27576;53.366;-1.498;2023-10-31T05:07:57;10.70;;;8.80;;
41897;SDS011;27576;53.366;-1.498;2023-10-31T05:10:23;9.55;;;7.93;;
41897;SDS011;27576;53.366;-1.498;2023-10-31T05:12:49;10.02;;;8.05;;
41897;SDS011;27576;53.366;-1.498;2023-10-31T05:15:15;10.90;;;8.50;;
41897;SDS011;27576;53.366;-1.498;2023-10-31T05:17:41;9.77;;;8.38;;
41897;SDS011;27576;53.366;-1.498;2023-10-31T05:20:06;13.02;;;8.23;;
41897;SDS011;27576;53.366;-1.498;2023-10-31T05:22:33;8.13;;;7.32;;
41897;SDS011;27576;53.366;-1.498;2023-10-31T05:24:59;7.70;;;6.90;;
41897;SDS011;27576;53.366;-1.498;2023-10-31T05:27:24;8.80;;;7.13;;
41897;SDS011;27576;53.366;-1.498;2023-10-31T05:29:49;9.50;;;7.63;;
41897;SDS011;27576;53.366;-1.498;2023-10-31T05:32:15;7.90;;;7.07;;
41897;SDS011;27576;53.366;-1.498;2023-10-31T05:34:40;8.73;;;6.35;;
41897;SDS011;27576;53.366;-1.498;2023-10-31T05:37:06;6.20;;;5.60;;
41897;SDS011;27576;53.366;-1.498;2023-10-31T05:39:31;6.63;;;5.93;;
41897;SDS011;27576;53.366;-1.498;2023-10-31T05:41:56;7.32;;;6.25;;
41897;SDS011;27576;53.366;-1.498;2023-10-31T05:44:22;7.28;;;6.25;;
41897;SDS011;27576;53.366;-1.498;2023-10-31T05:46:47;8.30;;;5.88;;
41897;SDS011;27576;53.366;-1.498;2023-10-31T05:49:12;5.85;;;5.35;;
41897;SDS011;27576;53.366;-1.498;2023-10-31T05:51:38;8.05;;;5.28;;
41897;SDS011;27576;53.366;-1.498;2023-10-31T05:54:03;5.95;;;4.88;;
41897;SDS011;27576;53.366;-1.498;2023-10-31T05:56:31;5.43;;;4.75;;
41897;SDS011;27576;53.366;-1.498;2023-10-31T05:58:56;7.07;;;5.13;;
41897;SDS011;27576;53.366;-1.498;2023-10-31T06:01:22;5.30;;;4.80;;
41897;SDS011;27576;53.366;-1.498;2023-10-31T06:03:47;5.90;;;5.30;;
41897;SDS011;27576;53.366;-1.498;2023-10-31T06:06:12;5.40;;;4.90;;
41897;SDS011;27576;53.366;-1.498;2023-10-31T06:08:38;5.53;;;5.03;;
41897;SDS011;27576;53.366;-1.498;2023-10-31T06:11:04;6.90;;;5.90;;
41897;SDS011;27576;53.366;-1.498;2023-10-31T06:13:30;6.18;;;5.57;;
41897;SDS011;27576;53.366;-1.498;2023-10-31T06:15:56;5.47;;;4.97;;
41897;SDS011;27576;53.366;-1.498;2023-10-31T06:18:23;4.75;;;4.30;;
41897;SDS011;27576;53.366;-1.498;2023-10-31T06:20:48;4.57;;;4.18;;
41897;SDS011;27576;53.366;-1.498;2023-10-31T06:23:14;4.80;;;4.35;;
41897;SDS011;27576;53.366;-1.498;2023-10-31T06:25:39;6.68;;;4.25;;
41897;SDS011;27576;53.366;-1.498;2023-10-31T06:28:05;6.97;;;5.22;;
41897;SDS011;27576;53.366;-1.498;2023-10-31T06:30:30;6.65;;;5.82;;
41897;SDS011;27576;53.366;-1.498;2023-10-31T06:32:55;8.27;;;5.53;;
41897;SDS011;27576;53.366;-1.498;2023-10-31T06:35:22;6.07;;;5.47;;
41897;SDS011;27576;53.366;-1.498;2023-10-31T06:37:49;6.82;;;5.80;;
41897;SDS011;27576;53.366;-1.498;2023-10-31T06:40:15;8.43;;;6.70;;
41897;SDS011;27576;53.366;-1.498;2023-10-31T06:42:40;8.52;;;6.70;;
41897;SDS011;27576;53.366;-1.498;2023-10-31T06:45:06;7.38;;;6.55;;
41897;SDS011;27576;53.366;-1.498;2023-10-31T06:47:32;6.90;;;6.00;;
41897;SDS011;27576;53.366;-1.498;2023-10-31T06:49:57;7.70;;;6.22;;
41897;SDS011;27576;53.366;-1.498;2023-10-31T06:52:23;7.90;;;5.57;;
41897;SDS011;27576;53.366;-1.498;2023-10-31T06:54:48;8.35;;;6.30;;
41897;SDS011;27576;53.366;-1.498;2023-10-31T06:57:14;8.48;;;6.55;;
41897;SDS011;27576;53.366;-1.498;2023-10-31T06:59:41;8.50;;;6.57;;
41897;SDS011;27576;53.366;-1.498;2023-10-31T07:02:06;7.47;;;6.10;;
41897;SDS011;27576;53.366;-1.498;2023-10-31T07:04:32;9.23;;;7.07;;
41897;SDS011;27576;53.366;-1.498;2023-10-31T07:06:57;11.02;;;7.45;;
41897;SDS011;27576;53.366;-1.498;2023-10-31T07:09:23;10.65;;;7.03;;
41897;SDS011;27576;53.366;-1.498;2023-10-31T07:11:49;9.57;;;7.10;;
41897;SDS011;27576;53.366;-1.498;2023-10-31T07:14:15;11.45;;;8.27;;
41897;SDS011;27576;53.366;-1.498;2023-10-31T07:16:40;11.52;;;7.78;;
41897;SDS011;27576;53.366;-1.498;2023-10-31T07:19:08;10.20;;;7.53;;
41897;SDS011;27576;53.366;-1.498;2023-10-31T07:21:34;11.70;;;7.93;;
41897;SDS011;27576;53.366;-1.498;2023-10-31T07:23:59;10.15;;;7.85;;
41897;SDS011;27576;53.366;-1.498;2023-10-31T07:26:25;8.32;;;6.85;;
41897;SDS011;27576;53.366;-1.498;2023-10-31T07:28:52;11.75;;;8.65;;
41897;SDS011;27576;53.366;-1.498;2023-10-31T07:31:17;11.63;;;8.55;;
41897;SDS011;27576;53.366;-1.498;2023-10-31T07:33:43;10.55;;;8.05;;
41897;SDS011;27576;53.366;-1.498;2023-10-31T07:36:11;10.63;;;7.97;;
41897;SDS011;27576;53.366;-1.498;2023-10-31T07:38:37;12.80;;;8.48;;
41897;SDS011;27576;53.366;-1.498;2023-10-31T07:41:03;11.90;;;8.60;;
41897;SDS011;27576;53.366;-1.498;2023-10-31T07:43:28;14.95;;;9.95;;
41897;SDS011;27576;53.366;-1.498;2023-10-31T07:45:54;14.07;;;8.98;;
41897;SDS011;27576;53.366;-1.498;2023-10-31T07:48:19;12.50;;;9.07;;
41897;SDS011;27576;53.366;-1.498;2023-10-31T07:50:44;11.02;;;8.57;;
41897;SDS011;27576;53.366;-1.498;2023-10-31T07:53:10;16.33;;;9.30;;
41897;SDS011;27576;53.366;-1.498;2023-10-31T07:55:35;12.45;;;9.57;;
41897;SDS011;27576;53.366;-1.498;2023-10-31T07:58:01;15.27;;;9.57;;
41897;SDS011;27576;53.366;-1.498;2023-10-31T08:00:26;17.95;;;11.00;;
41897;SDS011;27576;53.366;-1.498;2023-10-31T08:02:52;15.80;;;11.05;;
41897;SDS011;27576;53.366;-1.498;2023-10-31T08:05:17;12.82;;;9.05;;
41897;SDS011;27576;53.366;-1.498;2023-10-31T08:07:42;13.63;;;10.15;;
41897;SDS011;27576;53.366;-1.498;2023-10-31T08:10:09;16.48;;;10.68;;
41897;SDS011;27576;53.366;-1.498;2023-10-31T08:12:35;18.48;;;11.18;;
41897;SDS011;27576;53.366;-1.498;2023-10-31T08:15:01;16.10;;;10.32;;
41897;SDS011;27576;53.366;-1.498;2023-10-31T08:17:26;14.57;;;10.82;;
41897;SDS011;27576;53.366;-1.498;2023-10-31T08:19:52;17.20;;;11.10;;
41897;SDS011;27576;53.366;-1.498;2023-10-31T08:22:17;17.90;;;10.82;;
41897;SDS011;27576;53.366;-1.498;2023-10-31T08:24:42;17.63;;;12.15;;
41897;SDS011;27576;53.366;-1.498;2023-10-31T08:27:08;16.17;;;11.18;;
41897;SDS011;27576;53.366;-1.498;2023-10-31T08:29:33;17.50;;;11.43;;
41897;SDS011;27576;53.366;-1.498;2023-10-31T08:31:58;15.52;;;11.60;;
41897;SDS011;27576;53.366;-1.498;2023-10-31T08:34:24;14.35;;;10.45;;
41897;SDS011;27576;53.366;-1.498;2023-10-31T08:36:49;15.05;;;10.70;;
41897;SDS011;27576;53.366;-1.498;2023-10-31T08:39:15;14.30;;;10.85;;
41897;SDS011;27576;53.366;-1.498;2023-10-31T08:44:35;14.45;;;9.60;;
41897;SDS011;27576;53.366;-1.498;2023-10-31T08:47:02;15.27;;;10.02;;
41897;SDS011;27576;53.366;-1.498;2023-10-31T08:49:28;17.27;;;10.63;;
41897;SDS011;27576;53.366;-1.498;2023-10-31T08:51:54;14.10;;;9.80;;
41897;SDS011;27576;53.366;-1.498;2023-10-31T08:54:19;14.00;;;9.68;;
41897;SDS011;27576;53.366;-1.498;2023-10-31T08:56:45;12.65;;;9.60;;
41897;SDS011;27576;53.366;-1.498;2023-10-31T08:59:10;14.23;;;10.32;;
41897;SDS011;27576;53.366;-1.498;2023-10-31T09:01:35;11.73;;;9.43;;
41897;SDS011;27576;53.366;-1.498;2023-10-31T09:04:01;15.82;;;10.70;;
41897;SDS011;27576;53.366;-1.498;2023-10-31T09:06:26;16.45;;;10.55;;
41897;SDS011;27576;53.366;-1.498;2023-10-31T09:08:52;15.73;;;11.15;;
41897;SDS011;27576;53.366;-1.498;2023-10-31T09:11:17;15.50;;;10.63;;
41897;SDS011;27576;53.366;-1.498;2023-10-31T09:13:42;15.65;;;11.80;;
41897;SDS011;27576;53.366;-1.498;2023-10-31T09:16:08;17.48;;;12.60;;
41897;SDS011;27576;53.366;-1.498;2023-10-31T09:18:33;16.67;;;12.07;;
41897;SDS011;27576;53.366;-1.498;2023-10-31T09:20:59;16.15;;;10.80;;
41897;SDS011;27576;53.366;-1.498;2023-10-31T09:23:25;16.77;;;12.40;;
41897;SDS011;27576;53.366;-1.498;2023-10-31T09:25:50;17.58;;;12.65;;
41897;SDS011;27576;53.366;-1.498;2023-10-31T09:28:15;14.85;;;10.82;;
41897;SDS011;27576;53.366;-1.498;2023-10-31T09:30:42;15.77;;;11.55;;
41897;SDS011;27576;53.366;-1.498;2023-10-31T09:33:07;15.25;;;11.25;;
41897;SDS011;27576;53.366;-1.498;2023-10-31T09:35:33;16.85;;;12.18;;
41897;SDS011;27576;53.366;-1.498;2023-10-31T09:37:58;17.17;;;12.60;;
41897;SDS011;27576;53.366;-1.498;2023-10-31T09:40:24;17.38;;;12.77;;
41897;SDS011;27576;53.366;-1.498;2023-10-31T09:42:49;16.73;;;13.05;;
41897;SDS011;27576;53.366;-1.498;2023-10-31T09:45:15;18.67;;;13.30;;
41897;SDS011;27576;53.366;-1.498;2023-10-31T09:47:40;18.25;;;13.27;;
41897;SDS011;27576;53.366;-1.498;2023-10-31T09:50:08;18.30;;;13.43;;
41897;SDS011;27576;53.366;-1.498;2023-10-31T09:52:35;17.35;;;12.00;;
41897;SDS011;27576;53.366;-1.498;2023-10-31T09:55:00;19.00;;;13.93;;
41897;SDS011;27576;53.366;-1.498;2023-10-31T09:57:26;19.10;;;13.68;;
41897;SDS011;27576;53.366;-1.498;2023-10-31T09:59:51;21.15;;;15.02;;
41897;SDS011;27576;53.366;-1.498;2023-10-31T10:02:17;20.48;;;13.68;;
41897;SDS011;27576;53.366;-1.498;2023-10-31T10:04:42;21.75;;;14.13;;
41897;SDS011;27576;53.366;-1.498;2023-10-31T10:07:08;23.23;;;15.25;;
41897;SDS011;27576;53.366;-1.498;2023-10-31T10:09:38;25.13;;;15.57;;
41897;SDS011;27576;53.366;-1.498;2023-10-31T10:12:04;19.80;;;14.90;;
41897;SDS011;27576;53.366;-1.498;2023-10-31T10:14:30;22.90;;;14.82;;
41897;SDS011;27576;53.366;-1.498;2023-10-31T10:16:58;22.92;;;15.85;;
41897;SDS011;27576;53.366;-1.498;2023-10-31T10:19:24;22.30;;;16.33;;
41897;SDS011;27576;53.366;-1.498;2023-10-31T10:21:54;20.40;;;14.57;;
41897;SDS011;27576;53.366;-1.498;2023-10-31T10:24:21;21.05;;;14.50;;
41897;SDS011;27576;53.366;-1.498;2023-10-31T10:26:48;18.55;;;13.93;;
41897;SDS011;27576;53.366;-1.498;2023-10-31T10:29:14;16.63;;;12.27;;
41897;SDS011;27576;53.366;-1.498;2023-10-31T10:31:40;19.13;;;13.68;;
41897;SDS011;27576;53.366;-1.498;2023-10-31T10:34:06;19.63;;;14.07;;
41897;SDS011;27576;53.366;-1.498;2023-10-31T10:36:32;14.88;;;12.05;;
41897;SDS011;27576;53.366;-1.498;2023-10-31T10:38:58;19.83;;;12.57;;
41897;SDS011;27576;53.366;-1.498;2023-10-31T10:41:25;17.23;;;12.60;;
41897;SDS011;27576;53.366;-1.498;2023-10-31T10:43:55;17.42;;;12.32;;
41897;SDS011;27576;53.366;-1.498;2023-10-31T10:46:33;21.05;;;13.15;;
41897;SDS011;27576;53.366;-1.498;2023-10-31T10:48:59;19.80;;;12.40;;
41897;SDS011;27576;53.366;-1.498;2023-10-31T10:51:29;13.95;;;10.15;;
41897;SDS011;27576;53.366;-1.498;2023-10-31T10:54:20;15.27;;;10.35;;
41897;SDS011;27576;53.366;-1.498;2023-10-31T10:56:58;18.20;;;11.68;;
41897;SDS011;27576;53.366;-1.498;2023-10-31T10:59:41;16.60;;;11.32;;
41897;SDS011;27576;53.366;-1.498;2023-10-31T11:02:08;17.58;;;11.82;;
41897;SDS011;27576;53.366;-1.498;2023-10-31T11:04:36;14.05;;;10.40;;
41897;SDS011;27576;53.366;-1.498;2023-10-31T11:07:02;14.95;;;9.82;;
41897;SDS011;27576;53.366;-1.498;2023-10-31T11:09:28;16.20;;;10.98;;
41897;SDS011;27576;53.366;-1.498;2023-10-31T11:11:55;11.63;;;9.63;;
41897;SDS011;27576;53.366;-1.498;2023-10-31T11:14:22;10.95;;;9.00;;
41897;SDS011;27576;53.366;-1.498;2023-10-31T11:16:51;15.02;;;10.15;;
41897;SDS011;27576;53.366;-1.498;2023-10-31T11:19:18;15.25;;;10.50;;
41897;SDS011;27576;53.366;-1.498;2023-10-31T11:21:54;16.35;;;11.18;;
41897;SDS011;27576;53.366;-1.498;2023-10-31T11:24:20;12.05;;;9.20;;
41897;SDS011;27576;53.366;-1.498;2023-10-31T11:26:51;16.20;;;11.10;;
41897;SDS011;27576;53.366;-1.498;2023-10-31T11:29:17;16.20;;;10.68;;
41897;SDS011;27576;53.366;-1.498;2023-10-31T11:31:43;14.80;;;11.82;;
41897;SDS011;27576;53.366;-1.498;2023-10-31T11:34:08;14.40;;;11.73;;
41897;SDS011;27576;53.366;-1.498;2023-10-31T11:36:35;17.08;;;12.82;;
41897;SDS011;27576;53.366;-1.498;2023-10-31T11:39:11;15.93;;;10.77;;
41897;SDS011;27576;53.366;-1.498;2023-10-31T11:41:38;17.00;;;11.75;;
41897;SDS011;27576;53.366;-1.498;2023-10-31T11:44:04;15.30;;;11.30;;
41897;SDS011;27576;53.366;-1.498;2023-10-31T11:46:29;21.02;;;13.45;;
41897;SDS011;27576;53.366;-1.498;2023-10-31T11:48:55;15.60;;;11.88;;
41897;SDS011;27576;53.366;-1.498;2023-10-31T11:51:21;15.32;;;10.63;;
41897;SDS011;27576;53.366;-1.498;2023-10-31T11:53:50;20.15;;;11.82;;
41897;SDS011;27576;53.366;-1.498;2023-10-31T11:56:16;16.27;;;11.93;;
41897;SDS011;27576;53.366;-1.498;2023-10-31T11:58:41;11.10;;;9.75;;
41897;SDS011;27576;53.366;-1.498;2023-10-31T12:01:08;13.90;;;10.55;;
41897;SDS011;27576;53.366;-1.498;2023-10-31T12:03:37;14.45;;;11.10;;
41897;SDS011;27576;53.366;-1.498;2023-10-31T12:06:04;14.95;;;11.90;;
41897;SDS011;27576;53.366;-1.498;2023-10-31T12:13:30;11.80;;;9.18;;
41897;SDS011;27576;53.366;-1.498;2023-10-31T12:15:55;13.95;;;11.32;;
41897;SDS011;27576;53.366;-1.498;2023-10-31T12:18:21;14.55;;;10.57;;
41897;SDS011;27576;53.366;-1.498;2023-10-31T12:20:50;12.93;;;11.07;;
41897;SDS011;27576;53.366;-1.498;2023-10-31T12:23:17;12.90;;;10.25;;
41897;SDS011;27576;53.366;-1.498;2023-10-31T12:25:49;15.65;;;12.00;;
41897;SDS011;27576;53.366;-1.498;2023-10-31T12:28:21;14.43;;;10.65;;
41897;SDS011;27576;53.366;-1.498;2023-10-31T12:30:49;11.98;;;9.70;;
41897;SDS011;27576;53.366;-1.498;2023-10-31T12:33:16;12.27;;;9.30;;
41897;SDS011;27576;53.366;-1.498;2023-10-31T12:35:42;11.80;;;9.52;;
41897;SDS011;27576;53.366;-1.498;2023-10-31T12:38:12;15.00;;;11.48;;
41897;SDS011;27576;53.366;-1.498;2023-10-31T12:40:42;14.73;;;11.25;;
41897;SDS011;27576;53.366;-1.498;2023-10-31T12:43:09;11.88;;;9.82;;
41897;SDS011;27576;53.366;-1.498;2023-10-31T12:45:35;10.60;;;8.70;;
41897;SDS011;27576;53.366;-1.498;2023-10-31T12:48:01;13.18;;;8.95;;
41897;SDS011;27576;53.366;-1.498;2023-10-31T12:50:33;14.55;;;10.18;;
41897;SDS011;27576;53.366;-1.498;2023-10-31T12:53:01;10.60;;;9.15;;
41897;SDS011;27576;53.366;-1.498;2023-10-31T12:55:28;13.90;;;10.45;;
41897;SDS011;27576;53.366;-1.498;2023-10-31T12:57:55;13.90;;;11.10;;
41897;SDS011;27576;53.366;-1.498;2023-10-31T13:00:21;13.00;;;10.05;;
41897;SDS011;27576;53.366;-1.498;2023-10-31T13:02:59;11.75;;;9.25;;
41897;SDS011;27576;53.366;-1.498;2023-10-31T13:05:26;13.70;;;9.73;;
41897;SDS011;27576;53.366;-1.498;2023-10-31T13:07:52;15.45;;;10.77;;
41897;SDS011;27576;53.366;-1.498;2023-10-31T13:10:20;16.42;;;10.93;;
41897;SDS011;27576;53.366;-1.498;2023-10-31T13:12:47;17.35;;;12.18;;
41897;SDS011;27576;53.366;-1.498;2023-10-31T13:15:13;16.98;;;10.98;;
41897;SDS011;27576;53.366;-1.498;2023-10-31T13:17:39;17.55;;;12.23;;
41897;SDS011;27576;53.366;-1.498;2023-10-31T13:20:07;16.15;;;11.15;;
41897;SDS011;27576;53.366;-1.498;2023-10-31T13:22:34;14.70;;;10.48;;
41897;SDS011;27576;53.366;-1.498;2023-10-31T13:25:01;16.80;;;10.70;;
41897;SDS011;27576;53.366;-1.498;2023-10-31T13:27:29;20.83;;;10.13;;
41897;SDS011;27576;53.366;-1.498;2023-10-31T13:29:58;12.43;;;9.88;;
41897;SDS011;27576;53.366;-1.498;2023-10-31T13:32:24;13.57;;;9.50;;
41897;SDS011;27576;53.366;-1.498;2023-10-31T13:34:49;17.20;;;11.80;;
41897;SDS011;27576;53.366;-1.498;2023-10-31T13:37:14;17.58;;;12.30;;
41897;SDS011;27576;53.366;-1.498;2023-10-31T13:39:40;20.55;;;13.27;;
41897;SDS011;27576;53.366;-1.498;2023-10-31T13:42:05;18.75;;;12.77;;
41897;SDS011;27576;53.366;-1.498;2023-10-31T13:44:31;17.13;;;12.18;;
41897;SDS011;27576;53.366;-1.498;2023-10-31T13:46:56;26.00;;;13.32;;
41897;SDS011;27576;53.366;-1.498;2023-10-31T13:49:21;22.08;;;13.38;;
41897;SDS011;27576;53.366;-1.498;2023-10-31T13:51:47;16.88;;;11.85;;
41897;SDS011;27576;53.366;-1.498;2023-10-31T13:54:15;17.52;;;11.60;;
41897;SDS011;27576;53.366;-1.498;2023-10-31T13:56:41;16.45;;;11.10;;
41897;SDS011;27576;53.366;-1.498;2023-10-31T13:59:06;15.20;;;10.57;;
41897;SDS011;27576;53.366;-1.498;2023-10-31T14:01:31;13.00;;;9.88;;
41897;SDS011;27576;53.366;-1.498;2023-10-31T14:03:57;17.48;;;12.23;;
41897;SDS011;27576;53.366;-1.498;2023-10-31T14:06:22;16.63;;;11.02;;
41897;SDS011;27576;53.366;-1.498;2023-10-31T14:08:47;21.17;;;12.68;;
41897;SDS011;27576;53.366;-1.498;2023-10-31T14:11:13;20.75;;;13.15;;
41897;SDS011;27576;53.366;-1.498;2023-10-31T14:13:38;17.40;;;11.75;;
41897;SDS011;27576;53.366;-1.498;2023-10-31T14:16:04;16.58;;;10.45;;
41897;SDS011;27576;53.366;-1.498;2023-10-31T14:18:29;19.67;;;12.38;;
41897;SDS011;27576;53.366;-1.498;2023-10-31T14:20:56;18.20;;;12.18;;
41897;SDS011;27576;53.366;-1.498;2023-10-31T14:23:21;17.02;;;11.98;;
41897;SDS011;27576;53.366;-1.498;2023-10-31T14:25:46;23.17;;;12.20;;